Time;durP1;ratioP1;P1;durP2;ratioP2;P2;SDS_P1;SDS_P2;PMS_P1;PMS_P2;Temp;Humidity;BMP_temperature;BMP_pressure;BME280_temperature;BME280_humidity;BME280_pressure;Samples;Min_cycle;Max_cycle;Signal;HPM_P1;HPM_P2
2024/01/14 00:00:11;;;;;;;7.40;5.00;;;;;;;1.30;100.00;99560.70;105316;1260;71110;-58
2024/01/14 00:02:39;;;;;;;8.40;5.30;;;;;;;1.31;100.00;99553.98;105334;1257;69180;-58
2024/01/14 00:05:08;;;;;;;5.70;4.20;;;;;;;1.33;100.00;99554.82;105307;1259;69180;-58
2024/01/14 00:07:37;;;;;;;8.70;5.40;;;;;;;1.35;100.00;99555.98;105390;1260;73828;-59
2024/01/14 00:10:05;;;;;;;7.70;5.10;;;;;;;1.37;100.00;99547.55;105326;1261;81622;-58
2024/01/14 00:12:34;;;;;;;6.50;4.90;;;;;;;1.38;100.00;99539.09;105388;1260;71082;-58
2024/01/14 00:15:03;;;;;;;7.80;5.30;;;;;;;1.41;100.00;99533.89;105326;1259;69198;-58
2024/01/14 00:17:31;;;;;;;6.60;4.70;;;;;;;1.43;100.00;99525.42;105415;1258;69090;-58
2024/01/14 00:20:02;;;;;;;;;;;;;;;1.43;100.00;99521.12;105391;1259;75291;-59
2024/01/14 00:22:32;;;;;;;;;;;;;;;1.44;100.00;99517.66;105358;1260;81208;-59
2024/01/14 00:25:00;;;;;;;6.50;4.70;;;;;;;1.43;100.00;99515.09;105357;1260;72225;-59
2024/01/14 00:27:29;;;;;;;7.00;5.00;;;;;;;1.40;100.00;99514.45;105300;1260;69168;-59
2024/01/14 00:29:57;;;;;;;7.00;4.60;;;;;;;1.36;100.00;99512.61;105234;1260;69272;-60
2024/01/14 00:32:27;;;;;;;8.20;5.00;;;;;;;1.26;100.00;99503.28;105317;1260;73948;-60
2024/01/14 00:34:55;;;;;;;7.30;5.40;;;;;;;1.16;100.00;99507.20;105293;1260;81575;-60
2024/01/14 00:37:24;;;;;;;7.20;5.30;;;;;;;1.10;100.00;99495.92;105314;1259;72828;-59
2024/01/14 00:39:52;;;;;;;7.40;5.10;;;;;;;1.06;100.00;99498.89;105299;1260;69122;-62
2024/01/14 00:42:20;;;;;;;7.60;5.40;;;;;;;1.05;100.00;99499.59;105425;1260;69886;-62
2024/01/14 00:44:49;;;;;;;8.10;5.60;;;;;;;1.03;100.00;99486.89;105346;1260;73851;-61
2024/01/14 00:47:17;;;;;;;8.50;5.00;;;;;;;1.04;100.00;99487.40;105320;1259;82742;-61
2024/01/14 00:49:45;;;;;;;7.20;4.60;;;;;;;1.03;100.00;99485.17;105288;1258;72328;-61
2024/01/14 00:52:13;;;;;;;8.00;5.60;;;;;;;1.03;100.00;99477.95;105308;1260;69122;-61
2024/01/14 00:54:42;;;;;;;7.70;5.40;;;;;;;1.04;100.00;99468.29;105324;1260;69128;-62
2024/01/14 00:57:10;;;;;;;8.00;5.90;;;;;;;1.03;100.00;99468.84;105347;1267;74022;-61
2024/01/14 00:59:39;;;;;;;8.60;5.80;;;;;;;1.02;100.00;99475.02;105366;1260;80923;-59
2024/01/14 01:02:07;;;;;;;7.10;5.30;;;;;;;1.02;100.00;99469.34;105335;1257;71616;-61
2024/01/14 01:04:35;;;;;;;7.60;5.70;;;;;;;1.02;100.00;99465.05;105365;1255;69132;-62
2024/01/14 01:07:03;;;;;;;8.10;5.00;;;;;;;1.01;100.00;99456.98;105393;1269;69189;-63
2024/01/14 01:09:31;;;;;;;7.20;5.20;;;;;;;0.98;100.00;99454.10;105281;1260;73880;-64
2024/01/14 01:12:00;;;;;;;8.50;5.10;;;;;;;0.93;100.00;99444.02;105333;1259;81486;-65
2024/01/14 01:14:28;;;;;;;8.40;5.40;;;;;;;0.87;100.00;99441.69;105324;1258;72800;-65
2024/01/14 01:16:56;;;;;;;9.70;5.60;;;;;;;0.84;100.00;99433.30;105325;1260;69178;-64
2024/01/14 01:19:24;;;;;;;8.40;5.50;;;;;;;0.82;100.00;99432.30;105377;1260;69078;-61
2024/01/14 01:21:53;;;;;;;8.50;5.90;;;;;;;0.80;100.00;99433.17;105323;1258;75034;-60
2024/01/14 01:24:21;;;;;;;8.40;5.60;;;;;;;0.78;100.00;99428.38;105324;1261;82154;-60
2024/01/14 01:26:49;;;;;;;9.90;6.00;;;;;;;0.77;100.00;99432.54;105316;1259;71805;-60
2024/01/14 01:29:18;;;;;;;7.20;4.70;;;;;;;0.77;100.00;99430.46;105302;1260;69173;-61
2024/01/14 01:31:46;;;;;;;9.50;5.40;;;;;;;0.78;100.00;99428.05;105347;1260;69208;-60
2024/01/14 01:34:22;;;;;;;7.80;5.70;;;;;;;0.78;100.00;99423.23;105313;1260;74130;-60
2024/01/14 01:36:50;;;;;;;8.50;5.40;;;;;;;0.80;100.00;99419.08;105348;1261;81984;-60
2024/01/14 01:39:18;;;;;;;9.20;6.20;;;;;;;0.80;100.00;99421.48;105286;1259;73565;-60
2024/01/14 01:41:47;;;;;;;8.50;5.70;;;;;;;0.82;100.00;99417.68;105280;1257;69233;-59
2024/01/14 01:44:15;;;;;;;8.30;5.60;;;;;;;0.83;100.00;99411.98;105402;1258;69073;-54
2024/01/14 01:46:44;;;;;;;8.00;4.90;;;;;;;0.84;100.00;99417.82;105359;1259;74182;-54
2024/01/14 01:49:12;;;;;;;9.40;5.50;;;;;;;0.85;100.00;99418.15;105336;1260;81482;-52
2024/01/14 01:51:42;;;;;;;9.10;5.00;;;;;;;0.86;100.00;99410.05;105387;1257;71697;-54
2024/01/14 01:54:11;;;;;;;7.20;4.90;;;;;;;0.88;100.00;99415.01;105336;1259;69144;-52
2024/01/14 01:56:40;;;;;;;10.10;6.30;;;;;;;0.89;100.00;99408.64;105423;1259;69193;-54
2024/01/14 01:59:08;;;;;;;7.40;4.80;;;;;;;0.90;100.00;99414.30;105327;1260;73962;-55
2024/01/14 02:01:37;;;;;;;8.40;5.70;;;;;;;0.92;100.00;99411.02;105341;1258;80775;-52
2024/01/14 02:04:07;;;;;;;8.40;4.70;;;;;;;0.95;100.00;99408.38;105385;1260;70908;-55
2024/01/14 02:06:37;;;;;;;7.70;4.40;;;;;;;0.97;100.00;99408.36;105376;1258;69129;-55
2024/01/14 02:09:07;;;;;;;6.90;4.20;;;;;;;0.98;100.00;99405.27;105430;1255;69615;-54
2024/01/14 02:11:36;;;;;;;6.80;4.90;;;;;;;0.99;100.00;99402.48;105344;1260;75230;-55
2024/01/14 02:14:05;;;;;;;9.60;4.80;;;;;;;1.01;100.00;99398.33;105463;1260;80183;-55
2024/01/14 02:16:33;;;;;;;6.60;4.80;;;;;;;1.02;100.00;99400.36;105354;1261;71456;-57
2024/01/14 02:19:01;;;;;;;7.00;4.20;;;;;;;1.03;100.00;99391.93;105410;1259;69232;-56
2024/01/14 02:21:33;;;;;;;6.70;3.80;;;;;;;1.05;100.00;99387.09;105425;1260;69132;-57
2024/01/14 02:24:16;;;;;;;6.40;3.80;;;;;;;1.08;100.00;99392.02;105295;1258;73462;-56
2024/01/14 02:26:44;;;;;;;5.10;3.80;;;;;;;1.10;100.00;99393.54;105254;1260;82318;-56
2024/01/14 02:29:13;;;;;;;5.00;3.90;;;;;;;1.12;100.00;99383.88;105210;1257;71639;-55
2024/01/14 02:31:41;;;;;;;6.30;3.90;;;;;;;1.13;100.00;99373.19;105284;1259;69140;-55
2024/01/14 02:34:10;;;;;;;5.80;3.60;;;;;;;1.14;100.00;99377.31;105129;1257;69197;-54
2024/01/14 02:36:38;;;;;;;5.30;3.80;;;;;;;1.14;100.00;99371.98;105279;1257;73731;-55
2024/01/14 02:39:07;;;;;;;5.10;3.50;;;;;;;1.14;100.00;99367.69;105260;1257;82946;-53
2024/01/14 02:41:35;;;;;;;4.70;3.30;;;;;;;1.13;100.00;99363.39;105247;1258;73331;-55
2024/01/14 02:44:03;;;;;;;5.00;3.40;;;;;;;1.13;100.00;99356.86;105126;1258;69198;-55
2024/01/14 02:46:31;;;;;;;5.80;3.40;;;;;;;1.13;100.00;99359.43;105282;1260;69212;-55
2024/01/14 02:49:00;;;;;;;4.20;3.30;;;;;;;1.13;100.00;99361.16;105192;1257;73817;-54
2024/01/14 02:51:28;;;;;;;3.80;3.00;;;;;;;1.12;100.00;99358.44;105172;1260;81498;-55
2024/01/14 02:53:56;;;;;;;7.40;3.60;;;;;;;1.10;100.00;99355.86;105135;1261;71528;-55
2024/01/14 02:56:24;;;;;;;5.10;3.40;;;;;;;1.11;100.00;99354.48;105368;1260;69118;-54
2024/01/14 02:58:53;;;;;;;4.80;2.90;;;;;;;1.11;100.00;99353.79;105295;1260;69205;-54
2024/01/14 03:01:21;;;;;;;4.90;3.30;;;;;;;1.11;100.00;99340.20;105166;1257;72709;-55
2024/01/14 03:03:49;;;;;;;5.20;3.50;;;;;;;1.10;100.00;99334.53;105268;1269;81944;-54
2024/01/14 03:06:17;;;;;;;6.00;3.00;;;;;;;1.10;100.00;99335.05;105201;1260;72124;-55
2024/01/14 03:08:46;;;;;;;5.60;3.50;;;;;;;1.10;100.00;99343.65;105208;1256;69181;-55
2024/01/14 03:11:15;;;;;;;5.00;3.20;;;;;;;1.09;100.00;99335.41;105374;1257;69196;-55
2024/01/14 03:13:43;;;;;;;5.20;3.40;;;;;;;1.09;100.00;99341.95;105372;1258;73872;-55
2024/01/14 03:16:12;;;;;;;5.60;3.40;;;;;;;1.08;100.00;99332.67;105368;1260;83205;-55
2024/01/14 03:18:40;;;;;;;5.20;3.20;;;;;;;1.08;100.00;99343.68;105283;1258;71705;-53
2024/01/14 03:21:16;;;;;;;5.20;3.50;;;;;;;1.09;100.00;99341.43;105250;1260;69874;-51
2024/01/14 03:23:45;;;;;;;5.50;3.90;;;;;;;1.09;100.00;99338.16;105324;1258;69844;-55
2024/01/14 03:26:13;;;;;;;5.50;3.80;;;;;;;1.09;100.00;99330.07;105359;1258;73922;-52
2024/01/14 03:28:41;;;;;;;4.80;3.50;;;;;;;1.10;100.00;99337.11;105256;1258;81381;-53
2024/01/14 03:31:14;;;;;;;5.90;3.90;;;;;;;1.11;100.00;99330.90;105232;1260;71621;-52
2024/01/14 03:33:43;;;;;;;4.90;3.60;;;;;;;1.13;100.00;99326.05;105355;1260;69192;-54
2024/01/14 03:36:13;;;;;;;5.80;4.00;;;;;;;1.13;100.00;99327.60;105372;1258;69164;-53
2024/01/14 03:38:42;;;;;;;6.00;3.50;;;;;;;1.14;100.00;99328.80;105336;1257;74744;-53
2024/01/14 03:41:11;;;;;;;5.50;3.50;;;;;;;1.15;100.00;99328.10;105343;1259;82901;-54
2024/01/14 03:43:39;;;;;;;7.20;3.80;;;;;;;1.15;100.00;99319.67;105368;1259;72244;-53
2024/01/14 03:46:08;;;;;;;5.30;3.60;;;;;;;1.16;100.00;99321.02;105384;1258;69121;-52
2024/01/14 03:48:37;;;;;;;4.70;3.50;;;;;;;1.16;100.00;99324.28;105267;1260;69188;-54
2024/01/14 03:51:05;;;;;;;5.10;3.50;;;;;;;1.17;100.00;99322.22;105366;1258;73573;-52
2024/01/14 03:53:33;;;;;;;5.30;3.30;;;;;;;1.17;100.00;99327.55;105364;1257;81723;-58
2024/01/14 03:56:02;;;;;;;4.70;3.60;;;;;;;1.19;100.00;99325.80;105405;1257;72185;-56
2024/01/14 03:58:30;;;;;;;6.10;3.50;;;;;;;1.19;100.00;99322.02;105363;1259;69253;-53
2024/01/14 04:00:59;;;;;;;5.00;3.30;;;;;;;1.20;100.00;99316.66;105363;1257;69070;-56
2024/01/14 04:03:27;;;;;;;5.00;3.50;;;;;;;1.21;100.00;99314.75;105306;1259;74022;-55
2024/01/14 04:05:56;;;;;;;4.60;3.00;;;;;;;1.21;100.00;99308.71;105258;1258;80760;-53
2024/01/14 04:08:24;;;;;;;6.30;4.10;;;;;;;1.22;100.00;99316.45;105382;1259;70580;-52
2024/01/14 04:10:52;;;;;;;5.20;3.80;;;;;;;1.22;100.00;99304.76;105331;1257;69121;-55
2024/01/14 04:13:20;;;;;;;5.90;3.40;;;;;;;1.22;100.00;99310.60;105291;1258;69882;-55
2024/01/14 04:15:48;;;;;;;5.20;3.40;;;;;;;1.23;100.00;99307.31;105364;1257;73570;-55
2024/01/14 04:18:16;;;;;;;5.40;3.40;;;;;;;1.24;100.00;99303.52;105321;1259;83000;-54
2024/01/14 04:20:44;;;;;;;4.70;2.90;;;;;;;1.25;100.00;99298.34;105359;1257;71839;-55
2024/01/14 04:23:13;;;;;;;5.10;3.50;;;;;;;1.25;100.00;99300.41;105335;1259;69151;-55
2024/01/14 04:25:41;;;;;;;4.40;2.90;;;;;;;1.24;100.00;99299.02;105313;1260;69149;-57
2024/01/14 04:28:09;;;;;;;4.20;2.60;;;;;;;1.22;100.00;99300.27;105250;1257;73399;-57
2024/01/14 04:30:37;;;;;;;3.70;2.80;;;;;;;1.19;100.00;99303.77;105329;1259;81494;-56
2024/01/14 04:33:05;;;;;;;4.20;2.90;;;;;;;1.16;100.00;99298.48;105271;1261;72097;-56
2024/01/14 04:35:34;;;;;;;4.60;3.00;;;;;;;1.14;100.00;99300.41;105341;1259;69163;-55
2024/01/14 04:38:02;;;;;;;4.00;2.90;;;;;;;1.11;100.00;99298.05;105351;1261;69192;-56
2024/01/14 04:40:30;;;;;;;3.80;3.00;;;;;;;1.08;100.00;99298.09;105361;1258;73711;-56
2024/01/14 04:42:58;;;;;;;3.90;3.30;;;;;;;1.08;100.00;99294.14;105340;1258;81806;-53
2024/01/14 04:45:27;;;;;;;3.70;3.00;;;;;;;1.06;100.00;99289.52;105361;1258;72692;-56
2024/01/14 04:47:55;;;;;;;4.40;3.20;;;;;;;1.04;100.00;99292.83;105368;1258;69094;-55
2024/01/14 04:50:24;;;;;;;5.50;3.00;;;;;;;1.04;100.00;99291.11;105352;1259;69249;-54
2024/01/14 04:52:53;;;;;;;4.30;2.70;;;;;;;1.03;100.00;99300.94;105378;1258;73818;-55
2024/01/14 04:55:21;;;;;;;3.70;2.60;;;;;;;1.02;100.00;99288.56;105304;1259;82871;-56
2024/01/14 04:57:49;;;;;;;3.50;2.30;;;;;;;1.00;100.00;99283.95;105352;1257;70558;-55
2024/01/14 05:00:18;;;;;;;3.80;2.60;;;;;;;0.99;100.00;99282.75;105231;1256;69188;-55
2024/01/14 05:02:46;;;;;;;3.70;2.30;;;;;;;0.98;100.00;99278.14;105414;1258;69196;-55
2024/01/14 05:05:14;;;;;;;3.20;2.40;;;;;;;0.97;100.00;99283.15;105320;1257;75027;-52
2024/01/14 05:07:43;;;;;;;3.40;2.50;;;;;;;0.96;100.00;99275.91;105368;1257;82046;-55
2024/01/14 05:10:11;;;;;;;2.70;2.00;;;;;;;0.97;100.00;99280.05;105379;1260;71024;-52
2024/01/14 05:12:39;;;;;;;4.40;2.60;;;;;;;0.96;100.00;99273.70;105332;1255;69214;-54
2024/01/14 05:15:09;;;;;;;3.20;2.30;;;;;;;0.96;100.00;99273.01;105330;1261;69202;-53
2024/01/14 05:17:37;;;;;;;4.80;3.00;;;;;;;0.95;100.00;99266.14;105395;1259;73153;-53
2024/01/14 05:20:06;;;;;;;3.90;3.00;;;;;;;0.94;100.00;99265.80;105324;1259;82489;-53
2024/01/14 05:22:34;;;;;;;2.80;2.50;;;;;;;0.94;100.00;99255.48;105364;1259;70432;-49
2024/01/14 05:25:04;;;;;;;3.30;2.60;;;;;;;0.93;100.00;99258.59;105379;1257;69151;-53
2024/01/14 05:27:32;;;;;;;3.80;2.70;;;;;;;0.94;100.00;99264.59;105421;1257;69983;-51
2024/01/14 05:30:03;;;;;;;4.90;2.30;;;;;;;0.95;100.00;99269.91;105366;1255;74917;-56
2024/01/14 05:32:31;;;;;;;4.90;3.00;;;;;;;0.95;100.00;99275.25;105413;1257;83739;-53
2024/01/14 05:35:00;;;;;;;4.70;2.60;;;;;;;0.94;100.00;99276.98;105231;1257;71693;-58
2024/01/14 05:37:29;;;;;;;3.20;2.50;;;;;;;0.94;100.00;99270.63;105383;1259;69144;-53
2024/01/14 05:39:57;;;;;;;4.40;3.10;;;;;;;0.95;100.00;99270.96;105362;1260;69952;-51
2024/01/14 05:42:25;;;;;;;3.60;2.80;;;;;;;0.94;100.00;99271.65;105418;1257;75337;-54
2024/01/14 05:44:53;;;;;;;4.90;2.70;;;;;;;0.93;100.00;99283.72;105368;1257;82050;-49
2024/01/14 05:47:22;;;;;;;3.30;2.50;;;;;;;0.91;100.00;99283.23;105193;1256;71339;-51
2024/01/14 05:49:50;;;;;;;3.70;2.80;;;;;;;0.90;100.00;99278.95;105370;1260;69970;-51
2024/01/14 05:52:18;;;;;;;4.10;2.80;;;;;;;0.88;100.00;99281.72;105329;1260;69921;-50
2024/01/14 05:54:47;;;;;;;3.60;2.40;;;;;;;0.86;100.00;99279.35;105379;1257;75727;-53
2024/01/14 05:57:15;;;;;;;4.20;2.80;;;;;;;0.85;100.00;99277.48;105371;1259;81705;-50
2024/01/14 05:59:43;;;;;;;4.00;2.70;;;;;;;0.84;100.00;99274.58;105368;1257;72060;-51
2024/01/14 06:02:11;;;;;;;4.30;2.70;;;;;;;0.83;100.00;99269.42;105302;1259;69929;-48
2024/01/14 06:04:40;;;;;;;3.90;2.60;;;;;;;0.82;100.00;99265.81;105339;1259;69993;-49
2024/01/14 06:07:09;;;;;;;5.40;3.00;;;;;;;0.82;100.00;99267.71;105332;1257;73640;-50
2024/01/14 06:09:38;;;;;;;4.70;3.20;;;;;;;0.82;100.00;99266.51;105277;1260;81304;-51
2024/01/14 06:12:06;;;;;;;7.30;3.10;;;;;;;0.84;100.00;99270.61;105257;1257;71258;-50
2024/01/14 06:14:35;;;;;;;4.60;2.60;;;;;;;0.85;100.00;99273.67;105267;1259;69897;-49
2024/01/14 06:17:04;;;;;;;4.50;2.80;;;;;;;0.87;100.00;99279.85;105322;1255;69995;-51
2024/01/14 06:19:32;;;;;;;4.70;2.70;;;;;;;0.88;100.00;99285.16;105339;1257;72594;-50
2024/01/14 06:22:00;;;;;;;4.50;2.90;;;;;;;0.90;100.00;99289.42;105332;1259;82769;-50
2024/01/14 06:24:29;;;;;;;3.20;2.40;;;;;;;0.93;100.00;99279.94;105316;1259;72241;-52
2024/01/14 06:26:57;;;;;;;4.30;2.60;;;;;;;0.94;100.00;99280.42;105313;1260;69740;-50
2024/01/14 06:29:25;;;;;;;6.10;3.00;;;;;;;0.95;100.00;99277.66;105368;1257;69893;-53
2024/01/14 06:31:53;;;;;;;4.10;2.20;;;;;;;0.97;100.00;99279.88;105327;1257;74277;-49
2024/01/14 06:34:21;;;;;;;3.60;2.70;;;;;;;0.98;100.00;99283.11;105339;1257;81668;-49
2024/01/14 06:36:50;;;;;;;5.60;2.60;;;;;;;0.98;100.00;99274.70;105343;1259;71785;-49
2024/01/14 06:39:18;;;;;;;4.40;2.90;;;;;;;0.98;100.00;99279.15;105318;1257;69981;-51
2024/01/14 06:41:46;;;;;;;6.20;3.10;;;;;;;0.99;100.00;99283.27;105292;1259;69913;-49
2024/01/14 06:44:17;;;;;;;8.60;3.80;;;;;;;1.00;100.00;99278.10;105154;1257;73811;-51
2024/01/14 06:46:45;;;;;;;7.30;3.20;;;;;;;1.00;100.00;99284.98;105270;1259;82883;-51
2024/01/14 06:49:14;;;;;;;5.70;3.40;;;;;;;0.99;100.00;99291.00;105317;1259;72420;-52
2024/01/14 06:51:44;;;;;;;12.80;6.50;;;;;;;1.00;100.00;99292.20;105368;1259;69854;-52
2024/01/14 06:54:12;;;;;;;11.50;6.60;;;;;;;0.99;100.00;99287.40;105367;1260;69861;-50
2024/01/14 06:56:45;;;;;;;9.00;4.30;;;;;;;0.98;100.00;99289.84;105431;1257;74254;-49
2024/01/14 06:59:24;;;;;;;7.30;3.50;;;;;;;0.97;100.00;99301.72;105378;1257;81912;-51
2024/01/14 07:01:52;;;;;;;4.90;2.80;;;;;;;0.97;100.00;99291.05;105339;1257;71791;-50
2024/01/14 07:04:21;;;;;;;6.50;2.80;;;;;;;0.97;100.00;99298.46;105421;1257;69889;-51
2024/01/14 07:06:49;;;;;;;8.10;3.10;;;;;;;0.96;100.00;99305.33;105359;1259;69999;-52
2024/01/14 07:09:17;;;;;;;8.50;2.70;;;;;;;0.97;100.00;99309.80;105368;1258;74468;-53
2024/01/14 07:11:45;;;;;;;5.90;2.50;;;;;;;0.95;100.00;99318.42;105429;1257;81915;-54
2024/01/14 07:14:13;;;;;;;7.40;2.40;;;;;;;0.93;100.00;99320.52;105430;1259;71707;-52
2024/01/14 07:16:42;;;;;;;5.40;2.00;;;;;;;0.92;100.00;99323.12;105498;1256;69122;-56
2024/01/14 07:19:10;;;;;;;4.90;2.30;;;;;;;0.91;100.00;99321.58;105354;1257;69161;-58
2024/01/14 07:21:38;;;;;;;5.90;1.70;;;;;;;0.92;100.00;99323.98;105388;1257;73741;-57
2024/01/14 07:24:06;;;;;;;3.80;2.00;;;;;;;0.94;100.00;99331.86;105332;1259;81779;-58
2024/01/14 07:26:34;;;;;;;4.10;2.00;;;;;;;0.96;100.00;99338.03;105334;1257;72389;-57
2024/01/14 07:29:03;;;;;;;5.10;1.70;;;;;;;0.97;100.00;99333.89;105288;1256;69940;-56
2024/01/14 07:31:31;;;;;;;3.40;1.70;;;;;;;0.98;100.00;99333.69;105443;1257;69119;-54
2024/01/14 07:33:59;;;;;;;3.60;1.80;;;;;;;0.97;100.00;99332.67;105365;1256;76129;-56
2024/01/14 07:36:28;;;;;;;2.90;1.50;;;;;;;0.95;100.00;99328.59;105303;1259;82085;-49
2024/01/14 07:38:58;;;;;;;3.20;1.50;;;;;;;0.93;100.00;99332.38;105457;1257;71821;-52
2024/01/14 07:41:26;;;;;;;4.30;1.80;;;;;;;0.92;100.00;99331.21;105326;1258;69807;-53
2024/01/14 07:43:54;;;;;;;4.00;1.40;;;;;;;0.91;100.00;99328.80;105524;1255;69182;-54
2024/01/14 07:46:22;;;;;;;3.60;1.60;;;;;;;0.90;100.00;99327.79;105271;1256;72289;-53
2024/01/14 07:48:51;;;;;;;4.40;1.70;;;;;;;0.90;100.00;99324.52;105346;1259;82275;-54
2024/01/14 07:51:19;;;;;;;3.90;1.80;;;;;;;0.92;100.00;99332.75;105340;1257;74561;-54
2024/01/14 07:53:50;;;;;;;7.90;3.70;;;;;;;0.93;100.00;99333.08;105431;1259;69913;-53
2024/01/14 07:56:20;;;;;;;5.90;2.50;;;;;;;0.95;100.00;99341.66;105357;1257;69877;-50
2024/01/14 07:58:48;;;;;;;6.60;2.40;;;;;;;0.95;100.00;99340.96;105383;1256;73644;-53
2024/01/14 08:01:17;;;;;;;8.20;3.10;;;;;;;0.96;100.00;99348.67;105382;1259;81755;-51
2024/01/14 08:03:46;;;;;;;6.70;1.70;;;;;;;0.97;100.00;99350.23;105522;1257;71487;-52
2024/01/14 08:06:20;;;;;;;9.20;3.80;;;;;;;0.98;100.00;99352.27;105526;1259;69170;-58
2024/01/14 08:08:49;;;;;;;12.10;5.40;;;;;;;1.02;100.00;99348.42;105439;1256;69211;-54
2024/01/14 08:11:17;;;;;;;4.80;2.10;;;;;;;1.04;100.00;99351.66;105368;1259;74178;-57
2024/01/14 08:13:45;;;;;;;3.80;2.00;;;;;;;1.03;100.00;99357.02;105342;1257;80711;-55
2024/01/14 08:16:16;;;;;;;3.30;1.90;;;;;;;0.99;100.00;99353.63;105365;1259;72079;-57
2024/01/14 08:19:24;;;;;;;5.80;1.90;;;;;;;0.96;100.00;99351.09;105220;1260;69265;-57
2024/01/14 08:21:52;;;;;;;5.40;1.90;;;;;;;0.96;100.00;99353.15;105031;1260;69433;-58
2024/01/14 08:24:20;;;;;;;6.20;1.70;;;;;;;0.96;100.00;99357.80;105108;1259;76220;-56
2024/01/14 08:26:49;;;;;;;2.90;1.50;;;;;;;0.95;100.00;99352.15;105011;1263;82184;-56
2024/01/14 08:29:18;;;;;;;4.80;2.60;;;;;;;0.96;100.00;99356.08;105194;1260;70544;-56
2024/01/14 08:31:53;;;;;;;7.90;2.20;;;;;;;0.95;100.00;99361.43;105164;1259;69349;-55
2024/01/14 08:34:22;;;;;;;4.30;2.50;;;;;;;0.96;100.00;99357.80;105103;1259;69130;-56
2024/01/14 08:36:50;;;;;;;6.30;3.00;;;;;;;0.98;100.00;99361.73;105006;1260;74270;-56
2024/01/14 08:39:19;;;;;;;6.30;2.50;;;;;;;1.00;100.00;99363.75;104953;1259;81423;-55
2024/01/14 08:41:47;;;;;;;5.50;2.50;;;;;;;1.03;100.00;99367.84;104954;1260;71689;-55
2024/01/14 08:44:15;;;;;;;5.60;1.70;;;;;;;1.05;100.00;99360.60;105244;1257;69125;-54
2024/01/14 08:46:47;;;;;;;9.90;3.20;;;;;;;1.07;100.00;99362.95;105413;1259;69198;-55
2024/01/14 08:49:16;;;;;;;4.00;2.00;;;;;;;1.09;100.00;99364.48;105592;1257;72661;-53
2024/01/14 08:51:44;;;;;;;4.70;1.70;;;;;;;1.11;100.00;99373.57;105545;1256;81501;-54
2024/01/14 08:54:13;;;;;;;4.00;1.90;;;;;;;1.14;100.00;99370.61;105350;1259;73083;-53
2024/01/14 08:56:42;;;;;;;3.10;1.30;;;;;;;1.16;100.00;99376.42;105412;1256;69973;-54
2024/01/14 08:59:10;;;;;;;5.50;1.90;;;;;;;1.18;100.00;99373.47;105344;1259;69190;-54
2024/01/14 09:01:38;;;;;;;3.80;1.50;;;;;;;1.21;100.00;99376.50;105305;1256;74368;-54
2024/01/14 09:04:06;;;;;;;3.50;1.60;;;;;;;1.23;100.00;99371.84;105340;1259;81797;-54
2024/01/14 09:06:39;;;;;;;5.70;2.00;;;;;;;1.26;100.00;99381.95;105301;1258;72365;-55
2024/01/14 09:09:07;;;;;;;4.60;2.00;;;;;;;1.28;100.00;99380.89;105469;1259;69196;-52
2024/01/14 09:11:35;;;;;;;5.40;2.10;;;;;;;1.32;100.00;99379.61;105604;1260;69198;-54
2024/01/14 09:14:04;;;;;;;7.50;2.20;;;;;;;1.35;100.00;99385.95;105366;1257;75112;-52
2024/01/14 09:16:32;;;;;;;4.50;1.40;;;;;;;1.39;100.00;99382.10;105374;1259;82760;-53
2024/01/14 09:19:01;;;;;;;5.90;2.10;;;;;;;1.42;100.00;99380.48;105323;1257;72954;-54
2024/01/14 09:21:29;;;;;;;7.40;2.10;;;;;;;1.48;100.00;99377.48;105447;1259;69220;-54
2024/01/14 09:23:57;;;;;;;3.50;1.60;;;;;;;1.53;100.00;99382.55;105321;1259;69176;-54
2024/01/14 09:26:26;;;;;;;6.20;1.90;;;;;;;1.57;100.00;99380.23;105348;1255;76035;-54
2024/01/14 09:28:54;;;;;;;3.60;1.40;;;;;;;1.60;100.00;99380.36;105521;1259;82636;-52
2024/01/14 09:31:22;;;;;;;3.80;1.50;;;;;;;1.62;100.00;99374.65;105506;1257;71621;-55
2024/01/14 09:33:51;;;;;;;4.10;1.30;;;;;;;1.64;100.00;99382.20;105344;1259;69058;-55
2024/01/14 09:36:19;;;;;;;7.90;2.70;;;;;;;1.66;100.00;99374.42;105460;1256;69279;-52
2024/01/14 09:38:48;;;;;;;2.50;1.10;;;;;;;1.67;100.00;99370.95;105555;1256;73820;-56
2024/01/14 09:41:28;;;;;;;3.40;1.30;;;;;;;1.70;100.00;99373.81;105337;1259;81683;-52
2024/01/14 09:43:57;;;;;;;2.20;1.00;;;;;;;1.72;100.00;99368.11;105341;1256;72058;-53
2024/01/14 09:46:26;;;;;;;3.20;1.40;;;;;;;1.74;100.00;99365.14;105452;1257;69199;-54
2024/01/14 09:48:54;;;;;;;4.60;1.80;;;;;;;1.75;100.00;99359.25;105431;1259;69153;-54
2024/01/14 09:51:29;;;;;;;3.60;1.60;;;;;;;1.77;100.00;99355.27;105455;1256;76427;-50
2024/01/14 09:54:00;;;;;;;3.10;1.00;;;;;;;1.81;100.00;99348.14;105425;1259;82844;-55
2024/01/14 09:56:32;;;;;;;3.10;1.10;;;;;;;1.84;100.00;99349.47;105459;1256;70415;-52
2024/01/14 09:59:01;;;;;;;4.50;1.30;;;;;;;1.89;100.00;99348.33;105384;1257;69806;-50
2024/01/14 10:01:33;;;;;;;3.10;1.20;;;;;;;2.00;100.00;99336.24;105441;1259;69940;-51
2024/01/14 10:04:02;;;;;;;4.50;1.80;;;;;;;2.08;100.00;99347.96;105403;1257;72999;-53
2024/01/14 10:06:30;;;;;;;4.80;1.70;;;;;;;2.13;100.00;99338.05;105337;1257;82844;-52
2024/01/14 10:08:58;;;;;;;4.50;2.10;;;;;;;2.16;100.00;99340.58;105303;1257;71911;-54
2024/01/14 10:11:27;;;;;;;3.80;1.60;;;;;;;2.17;100.00;99334.35;105370;1256;69884;-51
2024/01/14 10:13:55;;;;;;;5.30;1.90;;;;;;;2.19;100.00;99337.76;105303;1259;69129;-50
2024/01/14 10:16:23;;;;;;;6.70;1.70;;;;;;;2.21;100.00;99333.40;105367;1259;74131;-53
2024/01/14 10:19:11;;;;;;;4.50;1.80;;;;;;;2.32;100.00;99337.50;105329;1258;82753;-52
2024/01/14 10:21:41;;;;;;;6.10;1.20;;;;;;;2.56;100.00;99339.40;105423;1257;72907;-54
2024/01/14 10:24:10;;;;;;;3.00;1.00;;;;;;;2.83;100.00;99339.84;105373;1257;69989;-53
2024/01/14 10:26:38;;;;;;;3.20;1.40;;;;;;;2.96;100.00;99336.46;105492;1257;69972;-51
2024/01/14 10:29:07;;;;;;;4.50;2.20;;;;;;;3.08;100.00;99338.77;105659;1257;74627;-50
2024/01/14 10:31:35;;;;;;;4.20;1.40;;;;;;;3.08;100.00;99332.38;105459;1257;80549;-52
2024/01/14 10:34:04;;;;;;;2.70;1.20;;;;;;;2.99;100.00;99328.61;105519;1257;72061;-51
2024/01/14 10:36:33;;;;;;;3.10;1.90;;;;;;;2.90;100.00;99328.82;105376;1257;70438;-51
2024/01/14 10:39:03;;;;;;;5.00;2.20;;;;;;;2.83;100.00;99326.40;105397;1259;70820;-50
2024/01/14 10:41:32;;;;;;;4.20;1.40;;;;;;;2.78;100.00;99323.41;105449;1255;203195;-50
2024/01/14 10:44:00;;;;;;;2.90;1.40;;;;;;;2.70;100.00;99321.52;105403;1257;82688;-51
2024/01/14 10:46:33;;;;;;;2.60;1.10;;;;;;;2.62;100.00;99318.08;105522;1257;70823;-51
2024/01/14 10:49:08;;;;;;;3.00;1.40;;;;;;;2.58;100.00;99320.05;105429;1259;69171;-53
2024/01/14 10:51:41;;;;;;;3.30;1.20;;;;;;;2.57;100.00;99315.77;105537;1256;70367;-53
2024/01/14 10:54:24;;;;;;;2.80;1.40;;;;;;;2.61;100.00;99315.70;105332;1256;74147;-51
2024/01/14 10:57:15;;;;;;;5.90;1.60;;;;;;;2.65;100.00;99312.64;105565;1259;81611;-50
2024/01/14 10:59:43;;;;;;;2.50;1.20;;;;;;;2.74;100.00;99310.23;105422;1257;73202;-52
2024/01/14 11:02:17;;;;;;;3.70;1.40;;;;;;;2.77;100.00;99306.19;105251;1255;69984;-50
2024/01/14 11:04:47;;;;;;;5.20;1.30;;;;;;;2.79;100.00;99312.17;105366;1259;69162;-54
2024/01/14 11:07:16;;;;;;;3.40;1.40;;;;;;;2.77;100.00;99311.02;105333;1257;73697;-51
2024/01/14 11:09:44;;;;;;;2.80;1.20;;;;;;;2.80;100.00;99313.54;105233;1259;81379;-53
2024/01/14 11:12:20;;;;;;;2.90;1.20;;;;;;;2.81;100.00;99311.09;105419;1257;73109;-51
2024/01/14 11:15:31;;;;;;;3.90;1.40;;;;;;;2.73;100.00;99308.17;105334;1256;69195;-55
2024/01/14 11:18:06;;;;;;;2.30;1.10;;;;;;;2.66;100.00;99308.83;105458;1257;69339;-52
2024/01/14 11:20:37;;;;;;;2.60;1.30;;;;;;;2.62;100.00;99306.86;105459;1257;73634;-51
2024/01/14 11:23:25;;;;;;;2.80;1.20;;;;;;;2.51;100.00;99303.67;105320;1257;80237;-53
2024/01/14 11:25:55;;;;;;;7.80;3.50;;;;;;;2.35;100.00;99300.88;105307;1257;72730;-51
2024/01/14 11:28:23;;;;;;;2.40;1.40;;;;;;;2.22;100.00;99298.05;105449;1255;69158;-54
2024/01/14 11:30:53;;;;;;;2.70;1.50;;;;;;;2.13;100.00;99301.52;105326;1258;69202;-54
2024/01/14 11:33:42;;;;;;;3.30;1.10;;;;;;;2.09;100.00;99295.21;105423;1257;74925;-53
2024/01/14 11:36:10;;;;;;;17.40;6.60;;;;;;;2.09;100.00;99289.20;105362;1257;80649;-52